createdAt,value
2023-05-06T04:39:15.180Z,60.29
2023-05-06T04:41:41.655Z,59.95
2023-05-06T04:44:08.223Z,60.79
2023-05-06T04:46:34.744Z,58.42
2023-05-06T04:49:01.323Z,59.54
2023-05-06T04:51:27.814Z,60.74
2023-05-06T04:53:54.225Z,57.70
2023-05-06T04:56:20.708Z,56.93
2023-05-06T04:58:47.172Z,56.55
2023-05-06T05:01:13.730Z,59.00
2023-05-06T05:03:40.257Z,59.61
2023-05-06T05:06:06.672Z,58.34
2023-05-06T05:08:33.229Z,58.13
2023-05-06T05:10:59.710Z,57.42
2023-05-06T05:13:26.173Z,56.47
2023-05-06T05:15:52.619Z,55.47
2023-05-06T05:18:19.048Z,56.29
2023-05-06T05:20:45.490Z,57.00
2023-05-06T05:23:11.899Z,54.86
2023-05-06T05:25:38.419Z,56.84
2023-05-06T05:28:04.972Z,55.96
2023-05-06T05:30:31.408Z,55.83
2023-05-06T05:32:57.990Z,54.68
2023-05-06T05:35:24.525Z,53.11
2023-05-06T05:37:50.960Z,51.14
2023-05-06T05:40:17.430Z,53.63
2023-05-06T05:42:44.013Z,52.57
2023-05-06T05:45:10.657Z,56.70
2023-05-06T05:47:37.270Z,53.08
2023-05-06T05:50:03.755Z,52.47
2023-05-06T05:52:30.264Z,49.77
2023-05-06T05:54:56.726Z,51.29
2023-05-06T05:57:23.268Z,50.01
2023-05-06T05:59:49.936Z,52.63
2023-05-06T06:02:16.388Z,51.31
2023-05-06T06:04:42.933Z,51.04
2023-05-06T06:07:12.438Z,53.24
2023-05-06T06:09:38.945Z,49.41
2023-05-06T06:12:05.390Z,50.75
2023-05-06T06:14:31.890Z,51.65
2023-05-06T06:16:58.361Z,50.35
2023-05-06T06:19:24.823Z,49.67
2023-05-06T06:21:51.228Z,50.62
2023-05-06T06:24:17.698Z,50.37
2023-05-06T06:26:44.112Z,47.77
2023-05-06T06:29:10.552Z,47.94
2023-05-06T06:31:39.022Z,48.69
2023-05-06T06:34:06.908Z,51.01
2023-05-06T06:36:33.477Z,49.36
2023-05-06T06:38:59.903Z,48.66
2023-05-06T06:41:26.356Z,47.97
2023-05-06T06:43:52.797Z,47.10
2023-05-06T06:46:19.401Z,46.72
2023-05-06T06:48:45.874Z,46.58
2023-05-06T06:51:12.333Z,47.80
2023-05-06T06:53:38.786Z,48.81
2023-05-06T06:56:05.225Z,47.77
2023-05-06T06:58:33.442Z,46.45
2023-05-06T07:01:00.995Z,44.43
2023-05-06T07:03:27.672Z,46.33
2023-05-06T07:05:54.174Z,46.27
2023-05-06T07:08:20.674Z,46.76
2023-05-06T07:10:47.193Z,45.16
2023-05-06T07:13:13.750Z,46.23
2023-05-06T07:15:40.281Z,44.89
2023-05-06T07:18:06.838Z,43.83
2023-05-06T07:20:33.369Z,45.16
2023-05-06T07:22:59.787Z,44.99
2023-05-06T07:25:26.318Z,45.14
2023-05-06T07:27:52.784Z,45.75
2023-05-06T07:30:20.482Z,44.61
2023-05-06T07:32:48.942Z,42.18
2023-05-06T07:35:15.490Z,44.68
2023-05-06T07:37:42.035Z,44.31
2023-05-06T07:40:08.555Z,42.40
2023-05-06T07:42:34.981Z,42.33
2023-05-06T07:45:01.436Z,45.30
2023-05-06T07:47:27.981Z,44.37
2023-05-06T07:49:54.527Z,42.67
2023-05-06T07:52:21.060Z,41.48
2023-05-06T07:54:47.529Z,41.79
2023-05-06T07:57:15.122Z,41.85
2023-05-06T07:59:41.536Z,40.57
2023-05-06T08:02:08.044Z,40.33
2023-05-06T08:04:34.575Z,39.99
2023-05-06T08:07:01.070Z,39.44
2023-05-06T08:09:27.526Z,41.92
2023-05-06T08:11:54.043Z,38.84
2023-05-06T08:14:20.592Z,40.47
2023-05-06T08:16:47.109Z,40.79
2023-05-06T08:19:16.096Z,39.99
2023-05-06T08:21:42.561Z,40.29
2023-05-06T08:24:08.973Z,39.75
2023-05-06T08:26:35.404Z,39.44
2023-05-06T08:29:01.853Z,39.11
2023-05-06T08:31:28.359Z,40.65
2023-05-06T08:33:55.100Z,39.92
2023-05-06T08:36:21.661Z,39.90
2023-05-06T08:38:48.096Z,38.15
2023-05-06T08:41:14.507Z,39.92
2023-05-06T08:43:40.930Z,40.54
2023-05-06T08:46:07.411Z,38.34
2023-05-06T08:48:33.936Z,38.19
2023-05-06T08:51:00.410Z,41.06
2023-05-06T08:53:26.906Z,37.33
2023-05-06T08:55:53.421Z,38.45
2023-05-06T08:58:19.995Z,39.76
2023-05-06T09:00:46.616Z,38.12
2023-05-06T09:03:13.229Z,38.49
2023-05-06T09:05:39.744Z,37.59
2023-05-06T09:08:06.250Z,37.79
2023-05-06T09:10:32.715Z,37.77
2023-05-06T09:12:59.318Z,36.71
2023-05-06T09:15:25.762Z,35.89
2023-05-06T09:17:54.535Z,37.28
2023-05-06T09:20:20.978Z,35.75
2023-05-06T09:22:47.505Z,37.45
2023-05-06T09:25:14.164Z,37.52
2023-05-06T09:27:40.662Z,37.59
2023-05-06T09:30:07.275Z,37.86
2023-05-06T09:32:34.035Z,35.96
2023-05-06T09:35:00.660Z,37.94
2023-05-06T09:37:27.281Z,36.10
2023-05-06T09:39:53.699Z,35.04
2023-05-06T09:42:20.131Z,36.88
2023-05-06T09:44:46.610Z,36.86
2023-05-06T09:47:13.020Z,35.52
2023-05-06T09:49:39.543Z,38.07
2023-05-06T09:52:06.050Z,35.69
2023-05-06T09:54:32.624Z,43.37
2023-05-06T09:57:00.956Z,70.49
2023-05-06T09:59:27.642Z,88.59
2023-05-06T10:01:54.346Z,146.98
2023-05-06T10:04:21.778Z,188.58
2023-05-06T10:06:49.729Z,228.03
2023-05-06T10:09:16.271Z,236.01
2023-05-06T10:11:42.809Z,243.40
2023-05-06T10:14:09.352Z,255.92
2023-05-06T10:16:35.978Z,262.95
2023-05-06T10:19:02.503Z,282.80
2023-05-06T10:21:29.043Z,290.72
2023-05-06T10:23:55.518Z,330.36
2023-05-06T10:26:22.033Z,394.64
2023-05-06T10:28:48.615Z,452.03
2023-05-06T10:31:15.145Z,479.63
2023-05-06T10:33:42.453Z,470.97
2023-05-06T10:36:09.076Z,471.65
2023-05-06T10:38:35.627Z,474.58
2023-05-06T10:41:02.528Z,459.70
2023-05-06T10:43:28.998Z,444.96
2023-05-06T10:45:55.572Z,439.99
2023-05-06T10:48:22.105Z,427.42
2023-05-06T10:50:48.642Z,412.04
2023-05-06T10:53:15.115Z,411.20
2023-05-06T10:55:41.568Z,406.07
2023-05-06T10:58:08.131Z,404.13
2023-05-06T11:00:34.668Z,397.59
2023-05-06T11:03:01.281Z,396.80
2023-05-06T11:05:27.819Z,392.07
2023-05-06T11:07:54.260Z,392.09
2023-05-06T11:10:20.697Z,383.90
2023-05-06T11:12:49.929Z,378.27
2023-05-06T11:15:16.652Z,377.42
2023-05-06T11:17:43.226Z,371.31
2023-05-06T11:20:09.954Z,370.63
2023-05-06T11:22:36.551Z,364.25
2023-05-06T11:25:03.011Z,354.33
2023-05-06T11:27:29.496Z,348.27
2023-05-06T11:29:55.930Z,343.25
2023-05-06T11:32:22.444Z,345.27
2023-05-06T11:34:49.047Z,347.64
2023-05-06T11:37:15.548Z,343.61
2023-05-06T11:39:42.020Z,346.08
2023-05-06T11:42:08.531Z,334.82
2023-05-06T11:44:34.994Z,349.94
2023-05-06T11:47:01.651Z,339.26
2023-05-06T11:49:28.144Z,340.40
2023-05-06T11:51:54.678Z,334.00
2023-05-06T11:54:21.211Z,341.09
2023-05-06T11:56:47.739Z,332.89
2023-05-06T11:59:14.183Z,337.52
2023-05-06T12:01:43.718Z,333.91
2023-05-06T12:04:10.455Z,334.14
2023-05-06T12:06:37.028Z,327.34
2023-05-06T12:09:03.505Z,322.50
2023-05-06T12:11:30.038Z,328.64
2023-05-06T12:13:56.622Z,322.50
2023-05-06T12:16:23.204Z,322.01
2023-05-06T12:18:51.635Z,321.67
2023-05-06T12:21:18.202Z,321.69
2023-05-06T12:23:44.708Z,314.17
2023-05-06T12:26:11.267Z,315.84
2023-05-06T12:28:37.815Z,317.54
2023-05-06T12:31:04.445Z,315.85
2023-05-06T12:33:31.002Z,306.00
2023-05-06T12:35:57.527Z,319.69
2023-05-06T12:38:23.978Z,307.42
2023-05-06T12:40:50.477Z,310.08
2023-05-06T12:43:16.961Z,307.46
2023-05-06T12:45:43.503Z,300.72
2023-05-06T12:48:10.111Z,302.22
2023-05-06T12:50:36.664Z,294.17
2023-05-06T12:53:03.183Z,301.11
2023-05-06T12:55:29.631Z,301.24
2023-05-06T12:57:57.793Z,300.89
2023-05-06T13:00:24.485Z,297.10
2023-05-06T13:02:51.135Z,292.98
2023-05-06T13:05:18.784Z,289.07
2023-05-06T13:07:45.390Z,295.06
2023-05-06T13:10:12.120Z,289.67
2023-05-06T13:12:38.862Z,287.21
2023-05-06T13:15:05.413Z,284.99
2023-05-06T13:17:32.005Z,284.98
2023-05-06T13:19:58.510Z,281.68
2023-05-06T13:22:28.036Z,281.88
2023-05-06T13:24:54.515Z,284.58
2023-05-06T13:27:21.029Z,281.30
2023-05-06T13:29:47.509Z,277.77
2023-05-06T13:32:14.081Z,275.98
2023-05-06T13:34:40.575Z,271.32
2023-05-06T13:37:07.052Z,271.14
2023-05-06T13:39:36.046Z,269.35
2023-05-06T13:42:02.542Z,274.21
2023-05-06T13:44:29.119Z,269.41
2023-05-06T13:46:55.651Z,274.79
2023-05-06T13:49:22.191Z,268.70
2023-05-06T13:51:48.706Z,266.58
2023-05-06T13:54:15.239Z,265.04
2023-05-06T13:56:41.853Z,255.24
2023-05-06T13:59:08.836Z,262.89
2023-05-06T14:01:35.638Z,264.57
2023-05-06T14:04:02.138Z,264.30
2023-05-06T14:06:28.598Z,257.51
2023-05-06T14:08:55.046Z,255.26
2023-05-06T14:11:21.589Z,256.74
2023-05-06T14:13:48.041Z,259.44
2023-05-06T14:16:14.523Z,262.58
2023-05-06T14:18:41.008Z,261.56
2023-05-06T14:21:07.521Z,256.52
2023-05-06T14:23:34.080Z,254.61
2023-05-06T14:26:00.606Z,250.31
2023-05-06T14:28:27.077Z,247.62
2023-05-06T14:30:53.626Z,251.16
2023-05-06T14:33:20.208Z,255.59
2023-05-06T14:35:46.717Z,250.09
2023-05-06T14:38:13.147Z,246.15
2023-05-06T14:40:39.689Z,244.12
2023-05-06T14:43:06.136Z,245.91
2023-05-06T14:45:32.681Z,248.22
2023-05-06T14:47:59.179Z,238.58
2023-05-06T14:50:25.771Z,242.14
2023-05-06T14:52:52.253Z,236.88
2023-05-06T14:55:18.717Z,232.10
2023-05-06T14:57:45.235Z,237.69
2023-05-06T15:00:11.720Z,232.98
2023-05-06T15:02:38.310Z,229.99
2023-05-06T15:05:04.952Z,235.02
2023-05-06T15:07:31.450Z,235.23
2023-05-06T15:09:57.998Z,233.06
2023-05-06T15:12:24.460Z,230.02
2023-05-06T15:14:50.928Z,233.08
2023-05-06T15:17:17.413Z,231.57
2023-05-06T15:19:43.861Z,231.23
2023-05-06T15:22:10.328Z,227.97
2023-05-06T15:24:36.926Z,227.32
2023-05-06T15:27:03.460Z,230.61
2023-05-06T15:29:29.979Z,226.50
2023-05-06T15:31:56.526Z,224.87
2023-05-06T15:34:23.080Z,220.97
2023-05-06T15:36:49.601Z,220.46
2023-05-06T15:39:16.086Z,223.91
2023-05-06T15:41:42.655Z,218.49
2023-05-06T15:44:09.925Z,222.08
2023-05-06T15:46:36.695Z,220.72
2023-05-06T15:49:32.016Z,219.64
2023-05-06T15:51:49.624Z,218.74
2023-05-06T15:54:16.130Z,216.57
2023-05-06T15:56:42.729Z,217.25
2023-05-06T15:59:09.196Z,218.35
2023-05-06T16:02:16.545Z,215.70
2023-05-06T16:04:22.270Z,216.05
2023-05-06T16:06:48.880Z,214.79
2023-05-06T16:09:15.351Z,210.98
2023-05-06T16:11:41.918Z,218.33
2023-05-06T16:14:08.421Z,211.11
2023-05-06T16:16:35.042Z,210.18
2023-05-06T16:19:01.627Z,206.58
2023-05-06T16:21:28.167Z,209.36
2023-05-06T16:23:54.674Z,206.96
2023-05-06T16:26:21.124Z,204.07
2023-05-06T16:28:47.636Z,196.08
2023-05-06T16:31:14.083Z,192.73
2023-05-06T16:33:40.533Z,180.49
2023-05-06T16:36:07.770Z,182.61
2023-05-06T16:38:34.530Z,171.34
2023-05-06T16:41:01.037Z,176.07
2023-05-06T16:43:27.803Z,167.87
2023-05-06T16:45:54.273Z,163.27
2023-05-06T16:48:21.154Z,162.69
2023-05-06T16:50:47.679Z,155.23
2023-05-06T16:53:14.204Z,156.06
2023-05-06T16:55:40.637Z,145.53
2023-05-06T16:58:07.134Z,135.06
2023-05-06T17:00:33.990Z,137.03
2023-05-06T17:03:00.705Z,136.06
2023-05-06T17:05:27.325Z,131.16
2023-05-06T17:07:54.193Z,127.35
2023-05-06T17:10:21.296Z,129.61
2023-05-06T17:12:47.747Z,126.92
2023-05-06T17:15:14.318Z,126.95
2023-05-06T17:17:40.972Z,131.49
2023-05-06T17:20:07.462Z,135.45
2023-05-06T17:22:33.976Z,134.56
2023-05-06T17:25:00.524Z,142.84
2023-05-06T17:27:27.002Z,147.06
2023-05-06T17:29:53.545Z,141.36
2023-05-06T17:32:20.130Z,141.91
2023-05-06T17:34:46.644Z,137.13
2023-05-06T17:37:13.098Z,140.93
2023-05-06T17:39:39.589Z,136.43
2023-05-06T17:42:06.096Z,138.69
2023-05-06T17:44:32.578Z,137.43
2023-05-06T17:46:59.184Z,137.05
2023-05-06T17:49:25.728Z,130.63
2023-05-06T17:51:52.249Z,128.13
2023-05-06T17:54:18.697Z,132.26
2023-05-06T17:56:45.197Z,132.96
2023-05-06T17:59:11.670Z,129.91
2023-05-06T18:01:38.269Z,125.70
2023-05-06T18:04:04.979Z,127.54
2023-05-06T18:06:31.605Z,125.45
2023-05-06T18:08:58.088Z,120.93
2023-05-06T18:11:24.582Z,119.33
2023-05-06T18:13:51.140Z,116.70
2023-05-06T18:16:17.722Z,118.66
2023-05-06T18:18:44.327Z,107.64
2023-05-06T18:21:10.802Z,82.61
2023-05-06T18:23:37.382Z,87.72
2023-05-06T18:26:03.925Z,96.74
2023-05-06T18:28:30.418Z,92.20
2023-05-06T18:30:57.057Z,90.08
2023-05-06T18:33:23.557Z,85.24
2023-05-06T18:35:50.061Z,89.60
2023-05-06T18:38:16.597Z,89.07
2023-05-06T18:40:43.162Z,86.39
2023-05-06T18:43:09.709Z,88.09
2023-05-06T18:45:36.326Z,95.07
2023-05-06T18:48:02.899Z,93.02
2023-05-06T18:50:29.351Z,94.65
2023-05-06T18:52:55.916Z,92.95
2023-05-06T18:55:22.449Z,93.93
2023-05-06T18:57:49.012Z,97.31
2023-05-06T19:00:15.520Z,95.30
2023-05-06T19:02:42.165Z,91.42
2023-05-06T20:36:00.654Z,71.70
2023-05-06T20:38:27.173Z,67.52
2023-05-06T20:40:53.736Z,70.95
2023-05-06T20:43:20.219Z,68.33
2023-05-06T20:45:46.813Z,68.71
2023-05-06T20:48:15.063Z,67.80
2023-05-06T20:50:41.851Z,67.67
2023-05-06T21:32:52.519Z,61.19
